Time;durP1;ratioP1;P1;durP2;ratioP2;P2;SDS_P1;SDS_P2;PMS_P1;PMS_P2;Temp;Humidity;BMP_temperature;BMP_pressure;BME280_temperature;BME280_humidity;BME280_pressure;Samples;Min_cycle;Max_cycle;Signal;HPM_P1;HPM_P2
2023/03/15 07:35:15;;;;;;;2.77;2.57;;;6.10;99.90;8.40;101458.00;;;;6297645;22;1417141;-76
2023/03/15 07:37:41;;;;;;;1.10;1.10;;;6.00;99.90;8.70;101408.00;;;;6288121;22;20141;-73
2023/03/15 07:40:17;;;;;;;2.53;2.33;;;6.30;99.90;10.90;101500.00;;;;6307712;22;20141;-73
2023/03/15 07:42:57;;;;;;;2.70;2.50;;;7.30;99.90;9.60;101443.00;;;;6281854;22;20180;-73
2023/03/15 07:45:34;;;;;;;0.60;0.60;;;7.40;99.90;10.10;101509.00;;;;6307730;22;20219;-73
2023/03/15 07:48:13;;;;;;;2.37;2.13;;;7.70;99.90;8.10;101484.00;;;;6282296;22;20152;-75
2023/03/15 07:50:42;;;;;;;0.20;0.20;;;6.60;99.90;9.30;101505.00;;;;6307371;22;20152;-73
2023/03/15 07:53:17;;;;;;;0.20;0.20;;;6.90;99.90;11.00;101441.00;;;;6281411;22;20184;-74
2023/03/15 07:56:00;;;;;;;0.30;0.30;;;7.40;99.90;12.70;101479.00;;;;6307623;22;20142;-73
2023/03/15 07:58:34;;;;;;;0.83;0.83;;;8.50;99.90;11.90;101552.00;;;;6281949;22;20185;-73
2023/03/15 08:01:03;;;;;;;1.57;1.47;;;8.90;99.90;10.40;101544.00;;;;6282006;22;20162;-73
2023/03/15 08:03:37;;;;;;;0.30;0.30;;;8.10;99.90;10.70;101532.00;;;;6308863;22;20214;-73
2023/03/15 08:06:12;;;;;;;0.40;0.40;;;7.80;99.90;11.60;101513.00;;;;6306847;22;20226;-73
2023/03/15 08:08:43;;;;;;;0.80;0.80;;;8.60;99.90;11.80;101554.00;;;;6281334;22;20496;-73
2023/03/15 08:11:18;;;;;;;0.60;0.60;;;8.80;99.90;9.40;101543.00;;;;6307576;22;20150;-72
2023/03/15 08:13:49;;;;;;;1.87;1.40;;;8.10;99.90;9.30;101522.00;;;;6307215;22;20195;-73
2023/03/15 08:16:18;;;;;;;1.07;1.00;;;7.60;99.90;10.30;101534.00;;;;6307161;22;20506;-73
2023/03/15 08:18:45;;;;;;;0.20;0.20;;;7.70;99.90;11.50;101555.00;;;;6308812;22;20150;-73
2023/03/15 08:21:18;;;;;;;2.40;1.40;;;8.30;99.90;11.40;101563.00;;;;6306875;22;20277;-73
2023/03/15 08:23:47;;;;;;;0.90;0.90;;;8.80;99.90;11.40;101563.00;;;;6308570;22;20178;-75
2023/03/15 08:26:16;;;;;;;0.80;0.80;;;8.60;99.90;13.70;101572.00;;;;6307419;22;20540;-72
2023/03/15 08:29:08;;;;;;;0.20;0.20;;;9.80;99.90;12.00;101601.00;;;;6308604;22;20155;-72
2023/03/15 08:31:36;;;;;;;0.20;0.20;;;10.30;99.90;11.30;101581.00;;;;6261524;22;20163;-72
2023/03/15 08:34:05;;;;;;;0.20;0.20;;;9.70;99.90;10.30;101503.00;;;;6281243;22;20235;-74
2023/03/15 08:36:31;;;;;;;0.20;0.20;;;8.70;99.90;12.50;101588.00;;;;6306369;22;20168;-72
2023/03/15 08:39:00;;;;;;;0.30;0.30;;;9.20;99.90;12.90;101578.00;;;;6307062;22;20623;-73
2023/03/15 08:41:28;;;;;;;0.40;0.40;;;9.50;99.90;11.30;101583.00;;;;6307092;22;20139;-73
2023/03/15 08:43:54;;;;;;;1.70;1.60;;;9.40;99.90;12.70;101590.00;;;;6281252;22;20274;-72
2023/03/15 08:46:25;;;;;;;0.20;0.20;;;9.80;99.90;15.20;101621.00;;;;6308157;22;20139;-73
2023/03/15 08:48:56;;;;;;;3.73;0.87;;;11.10;99.90;12.90;101647.00;;;;6307393;22;20149;-72
2023/03/15 08:51:47;;;;;;;0.20;0.20;;;11.10;99.90;12.60;101613.00;;;;6306842;22;20147;-72
2023/03/15 08:54:16;;;;;;;0.20;0.20;;;10.40;99.90;10.30;101629.00;;;;6284621;22;20206;-73
2023/03/15 08:57:16;;;;;;;0.20;0.20;;;8.70;99.90;8.60;101594.00;;;;6308416;22;20174;-74
2023/03/15 09:00:21;;;;;;;0.30;0.30;;;7.60;99.90;9.70;101601.00;;;;6295907;22;20156;-74
2023/03/15 09:02:56;;;;;;;0.53;0.53;;;7.10;99.90;7.20;101589.00;;;;6306728;22;20184;-74
2023/03/15 09:05:43;;;;;;;0.20;0.20;;;6.30;99.90;7.80;101597.00;;;;6280701;22;20170;-74
2023/03/15 09:08:13;;;;;;;1.13;0.57;;;5.90;99.90;7.00;101587.00;;;;6280938;22;20347;-74
2023/03/15 09:10:42;;;;;;;8.93;1.80;;;5.70;99.90;8.50;101602.00;;;;6281111;22;20156;-73
2023/03/15 09:13:19;;;;;;;0.20;0.20;;;6.10;99.90;9.60;101625.00;;;;6308554;22;20149;-73
2023/03/15 09:16:05;;;;;;;0.20;0.20;;;6.80;99.90;8.70;101635.00;;;;6306215;22;20186;-73
2023/03/15 09:18:39;;;;;;;0.37;0.37;;;7.10;99.90;11.00;101641.00;;;;6306855;22;20473;-73
2023/03/15 09:21:05;;;;;;;0.20;0.20;;;7.70;99.90;13.60;101641.00;;;;6306815;22;20195;-74
2023/03/15 09:23:34;;;;;;;0.20;0.20;;;9.30;99.90;14.10;101632.00;;;;6281100;22;20173;-73
2023/03/15 09:26:09;;;;;;;0.20;0.20;;;10.40;99.90;14.70;101643.00;;;;6280848;22;20175;-73
2023/03/15 09:28:43;;;;;;;0.20;0.20;;;10.90;99.90;16.20;101663.00;;;;6306691;22;20473;-73
2023/03/15 09:31:32;;;;;;;0.77;0.40;;;12.00;99.90;15.60;101647.00;;;;6281461;22;20155;-73
2023/03/15 09:34:09;;;;;;;0.37;0.37;;;12.20;99.90;16.50;101662.00;;;;6280213;22;20180;-74
2023/03/15 09:36:59;;;;;;;2.00;0.50;;;12.60;99.90;13.00;101735.00;;;;6306570;22;20175;-73
2023/03/15 09:39:32;;;;;;;0.10;0.10;;;12.00;99.90;11.10;101776.00;;;;6207183;22;20161;-73
2023/03/15 09:42:03;;;;;;;0.73;0.73;;;9.70;99.90;13.90;101734.00;;;;6306073;22;20652;-73
2023/03/15 09:44:53;;;;;;;0.10;0.10;;;10.00;99.90;13.50;101716.00;;;;6306060;22;20169;-73
2023/03/15 09:47:36;;;;;;;0.20;0.20;;;10.40;99.90;13.80;101719.00;;;;6306465;22;20138;-73
2023/03/15 09:50:47;;;;;;;0.23;0.17;;;10.80;99.90;15.90;101641.00;;;;6307407;22;20145;-73
2023/03/15 09:53:38;;;;;;;0.20;0.20;;;11.80;99.90;16.90;101658.00;;;;6306611;22;20150;-73
2023/03/15 09:56:33;;;;;;;0.10;0.10;;;12.70;99.90;14.30;101719.00;;;;6306510;22;20156;-73
2023/03/15 09:59:27;;;;;;;0.10;0.10;;;12.30;99.90;16.30;101675.00;;;;6280691;22;20159;-73
2023/03/15 10:02:20;;;;;;;0.10;0.10;;;12.10;99.90;16.10;101675.00;;;;6289193;22;20184;-73
2023/03/15 10:05:05;;;;;;;0.10;0.10;;;12.80;99.90;13.70;101722.00;;;;6305716;22;20689;-73
2023/03/15 10:07:45;;;;;;;0.73;0.63;;;11.50;99.90;13.80;101708.00;;;;6306178;22;20155;-73
2023/03/15 10:10:39;;;;;;;0.10;0.10;;;11.00;99.90;16.10;101671.00;;;;6306408;22;20153;-74
2023/03/15 10:13:47;;;;;;;0.10;0.10;;;11.40;99.90;14.20;101684.00;;;;6306010;22;20161;-74
2023/03/15 10:16:34;;;;;;;0.70;0.70;;;11.90;99.90;15.00;101628.00;;;;6305953;22;20215;-73
2023/03/15 10:19:45;;;;;;;0.10;0.10;;;12.10;99.90;13.60;101729.00;;;;6307282;22;20170;-73
2023/03/15 10:33:33;;;;;;;0.20;0.20;;;11.00;99.90;14.20;101755.00;;;;5070320;28;20547;-72
2023/03/15 10:36:17;;;;;;;0.13;0.13;;;11.40;99.90;15.40;101717.00;;;;5040060;28;20183;-72
2023/03/15 10:38:52;;;;;;;0.13;0.13;;;11.80;99.90;16.40;101701.00;;;;5049500;28;20258;-73
2023/03/15 10:41:43;;;;;;;0.70;0.70;;;12.60;99.90;16.00;101697.00;;;;5046594;28;20217;-73
2023/03/15 10:44:26;;;;;;;0.13;0.13;;;13.00;99.90;13.90;101751.00;;;;5048696;28;20188;-72
2023/03/15 10:47:19;;;;;;;0.43;0.43;;;11.30;99.90;12.00;101785.00;;;;5050126;28;20178;-73
2023/03/15 10:49:45;;;;;;;0.20;0.20;;;10.30;99.90;11.80;101780.00;;;;5048651;28;20217;-73
2023/03/15 10:52:37;;;;;;;0.20;0.20;;;9.50;99.90;13.20;101761.00;;;;5048928;28;20210;-73
2023/03/15 10:55:20;;;;;;;0.33;0.33;;;9.50;99.90;15.10;101676.00;;;;5065672;28;20324;-73
2023/03/15 10:58:31;;;;;;;0.10;0.10;;;10.50;99.90;15.50;101712.00;;;;5044573;28;20193;-73
2023/03/15 11:01:08;;;;;;;0.10;0.10;;;11.10;99.90;15.90;101705.00;;;;5043584;28;20182;-73
2023/03/15 11:03:43;;;;;;;0.20;0.20;;;11.70;99.90;16.90;101695.00;;;;5047363;28;20191;-73
2023/03/15 11:06:25;;;;;;;0.10;0.10;;;12.40;99.90;17.70;101700.00;;;;5047862;28;20180;-73
2023/03/15 11:09:19;;;;;;;1.33;1.13;;;13.20;99.90;17.40;101721.00;;;;5034247;28;20191;-73
2023/03/15 11:12:26;;;;;;;0.10;0.10;;;13.70;99.90;18.40;101745.00;;;;5045452;28;20670;-73
2023/03/15 11:15:17;;;;;;;0.20;0.20;;;14.50;99.90;16.10;101850.00;;;;5047911;28;20254;-72
2023/03/15 11:17:48;;;;;;;0.10;0.10;;;13.50;99.90;17.00;101854.00;;;;5048365;28;20190;-73
2023/03/15 11:20:29;;;;;;;0.73;0.63;;;13.10;99.90;15.20;101870.00;;;;5048274;28;20169;-73
2023/03/15 11:23:18;;;;;;;0.20;0.20;;;12.70;99.90;14.90;101849.00;;;;5045022;28;20196;-73
2023/03/15 11:25:48;;;;;;;10.07;2.00;;;11.60;99.90;13.10;101878.00;;;;5043347;28;20204;-73
2023/03/15 11:28:30;;;;;;;0.57;0.50;;;11.10;99.90;13.40;101787.00;;;;5031757;28;20547;-73
2023/03/15 11:31:04;;;;;;;0.13;0.13;;;10.40;99.90;13.50;101864.00;;;;5045895;28;20187;-73
2023/03/15 11:33:50;;;;;;;0.23;0.23;;;10.20;99.90;13.40;101880.00;;;;5048222;28;20194;-72
2023/03/15 11:36:28;;;;;;;0.30;0.30;;;10.40;99.90;13.60;101853.00;;;;5016424;28;20644;-72
2023/03/15 11:39:04;;;;;;;0.17;0.17;;;10.70;99.90;12.80;101872.00;;;;5044219;28;20313;-73
2023/03/15 11:42:02;;;;;;;0.37;0.37;;;10.60;99.90;15.90;101837.00;;;;5041277;28;20249;-72
2023/03/15 11:44:51;;;;;;;0.63;0.63;;;11.60;99.90;13.30;101854.00;;;;5043497;28;20226;-73
2023/03/15 11:47:44;;;;;;;0.33;0.33;;;11.10;99.90;16.40;101819.00;;;;5031112;28;20272;-73
2023/03/15 11:50:18;;;;;;;1.53;1.43;;;12.40;99.90;15.60;101742.00;;;;5021158;28;20211;-73
2023/03/15 11:52:53;;;;;;;0.73;0.73;;;12.60;99.90;14.20;101840.00;;;;5027120;28;20206;-73
2023/03/15 11:55:36;;;;;;;0.10;0.10;;;11.90;99.90;13.70;101801.00;;;;5018110;28;20201;-73
2023/03/15 11:59:07;;;;;;;0.10;0.10;;;11.20;99.90;16.20;101822.00;;;;5034680;28;20187;-73
2023/03/15 12:01:37;;;;;;;0.70;0.70;;;11.70;99.90;14.20;101823.00;;;;5049816;28;20281;-73
2023/03/15 12:04:53;;;;;;;0.10;0.10;;;11.80;99.90;16.80;101774.00;;;;5022663;28;20186;-73
2023/03/15 12:07:32;;;;;;;0.10;0.10;;;12.30;99.90;15.50;101835.00;;;;5051124;28;20608;-73
2023/03/15 12:10:26;;;;;;;0.30;0.30;;;12.60;99.90;16.20;101781.00;;;;5029055;28;20203;-73
2023/03/15 12:13:26;;;;;;;0.20;0.20;;;12.70;99.90;16.80;101773.00;;;;5029958;28;20616;-74
2023/03/15 12:15:59;;;;;;;0.20;0.20;;;13.10;99.90;16.40;101726.00;;;;5022972;28;20184;-72
2023/03/15 12:18:54;;;;;;;0.10;0.10;;;13.00;99.90;17.10;101775.00;;;;5019434;28;20638;-72
2023/03/15 12:22:11;;;;;;;0.20;0.20;;;13.30;99.90;16.20;101782.00;;;;5023063;28;20231;-69
2023/03/15 12:24:47;;;;;;;0.50;0.43;;;13.40;99.90;16.50;101748.00;;;;5031994;28;20203;-70
2023/03/15 12:27:54;;;;;;;0.10;0.10;;;13.10;99.90;16.50;101776.00;;;;5032030;28;20190;-68
2023/03/15 12:31:17;;;;;;;0.20;0.20;;;13.10;99.90;16.00;101782.00;;;;5015746;28;20230;-68
2023/03/15 12:34:14;;;;;;;0.10;0.10;;;13.10;99.90;16.90;101762.00;;;;4954897;29;20209;-68
2023/03/15 12:37:17;;;;;;;0.10;0.10;;;13.00;99.90;13.80;101797.00;;;;4923307;28;20216;-68
2023/03/15 12:40:35;;;;;;;0.10;0.10;;;12.10;99.90;15.40;101781.00;;;;4936487;29;20197;-68
2023/03/15 12:43:41;;;;;;;1.23;1.23;;;11.80;99.90;16.40;101770.00;;;;4987748;28;20298;-68
2023/03/15 12:46:42;;;;;;;1.53;1.00;;;12.50;99.90;16.50;101720.00;;;;5026110;28;20183;-68
2023/03/15 12:49:29;;;;;;;0.13;0.13;;;12.80;99.90;16.40;101715.00;;;;5017349;28;20232;-67
2023/03/15 12:52:10;;;;;;;0.20;0.20;;;13.00;99.90;15.90;101768.00;;;;5016398;28;20216;-68
2023/03/15 12:55:09;;;;;;;0.10;0.10;;;13.00;99.90;15.70;101748.00;;;;5015706;28;20712;-68
2023/03/15 12:58:09;;;;;;;0.20;0.20;;;12.50;99.90;16.10;101745.00;;;;5042547;28;20543;-68
2023/03/15 13:00:59;;;;;;;0.10;0.10;;;12.50;99.90;15.60;101748.00;;;;5032762;28;20188;-68
2023/03/15 13:03:35;;;;;;;0.33;0.33;;;12.30;99.90;16.00;101748.00;;;;5032941;28;20202;-68
2023/03/15 13:06:48;;;;;;;0.30;0.30;;;12.50;99.90;14.20;101766.00;;;;5023567;28;20278;-68
2023/03/15 13:09:45;;;;;;;0.10;0.10;;;11.60;99.90;14.90;101751.00;;;;5029066;28;20205;-67
2023/03/15 13:12:30;;;;;;;0.30;0.30;;;11.90;99.90;14.60;101750.00;;;;5022044;28;20215;-68
2023/03/15 13:15:13;;;;;;;0.10;0.10;;;11.30;99.90;13.50;101773.00;;;;5065478;28;20237;-68
2023/03/15 13:18:03;;;;;;;0.53;0.33;;;11.20;99.90;15.20;101698.00;;;;5033172;28;20182;-67
2023/03/15 13:20:41;;;;;;;0.10;0.10;;;11.30;99.90;15.50;101731.00;;;;5033624;28;20209;-67
2023/03/15 13:23:30;;;;;;;0.23;0.23;;;12.00;99.90;14.80;101757.00;;;;5031912;28;20226;-67
2023/03/15 13:26:34;;;;;;;0.50;0.50;;;12.00;99.90;12.60;101783.00;;;;5030309;28;20186;-67
2023/03/15 13:29:19;;;;;;;0.20;0.20;;;10.50;99.90;12.90;101750.00;;;;5032273;28;20653;-67
2023/03/15 13:31:59;;;;;;;0.23;0.23;;;10.20;99.90;14.50;101770.00;;;;5020836;28;20616;-68
2023/03/15 13:34:55;;;;;;;0.10;0.10;;;10.70;99.90;16.00;101755.00;;;;5032288;28;20188;-67
2023/03/15 13:37:30;;;;;;;0.20;0.20;;;11.50;99.90;14.30;101772.00;;;;5028056;28;20200;-68
2023/03/15 13:40:09;;;;;;;0.10;0.10;;;11.40;99.90;15.20;101750.00;;;;5028942;28;20186;-68
2023/03/15 13:42:39;;;;;;;0.33;0.33;;;11.60;99.90;15.00;101705.00;;;;5038634;28;20195;-69
2023/03/15 13:45:15;;;;;;;1.10;1.10;;;11.70;99.90;15.50;101751.00;;;;5038909;28;20534;-68
2023/03/15 13:47:46;;;;;;;1.93;1.90;;;12.00;99.90;16.00;101740.00;;;;5039411;28;20248;-68
2023/03/15 13:50:20;;;;;;;0.20;0.20;;;12.30;99.90;13.90;101758.00;;;;5038095;28;20220;-68
2023/03/15 13:52:50;;;;;;;0.20;0.20;;;11.30;99.90;13.10;101774.00;;;;5040581;28;20239;-67
2023/03/15 13:55:33;;;;;;;0.10;0.10;;;10.90;99.90;14.40;101717.00;;;;5021677;28;20677;-67
2023/03/15 13:58:27;;;;;;;0.20;0.20;;;11.00;99.90;14.50;101775.00;;;;5022496;28;20279;-68
2023/03/15 14:01:22;;;;;;;0.10;0.10;;;11.30;99.90;14.90;101757.00;;;;5038041;28;20243;-68
2023/03/15 14:03:58;;;;;;;0.40;0.40;;;11.60;99.90;15.50;101765.00;;;;5046606;28;20208;-68
2023/03/15 14:06:32;;;;;;;0.10;0.10;;;11.90;99.90;15.70;101768.00;;;;5039786;28;20180;-68
2023/03/15 14:09:17;;;;;;;0.10;0.10;;;11.90;99.90;15.00;101765.00;;;;5038812;28;20182;-68
2023/03/15 14:11:43;;;;;;;0.10;0.10;;;11.90;99.90;15.30;101756.00;;;;5035370;28;20290;-68
2023/03/15 14:14:50;;;;;;;0.10;0.10;;;11.90;99.90;15.10;101772.00;;;;5023854;28;20661;-68
2023/03/15 14:17:23;;;;;;;0.20;0.20;;;11.60;99.90;14.80;101778.00;;;;5009856;28;20750;-68
2023/03/15 14:20:07;;;;;;;0.20;0.20;;;11.50;99.90;14.40;101762.00;;;;5030682;28;20188;-68
2023/03/15 14:22:40;;;;;;;0.40;0.40;;;11.40;99.90;14.10;101771.00;;;;5027848;28;20539;-68
2023/03/15 14:25:26;;;;;;;0.47;0.47;;;11.30;99.90;15.10;101754.00;;;;5004449;28;20585;-68
2023/03/15 14:28:14;;;;;;;0.10;0.10;;;11.40;99.90;13.90;101780.00;;;;5031717;28;20192;-68
2023/03/15 14:31:01;;;;;;;0.10;0.10;;;11.40;99.90;14.50;101767.00;;;;5031236;28;20330;-68
2023/03/15 14:33:41;;;;;;;1.20;0.63;;;11.30;99.90;12.40;101784.00;;;;5031635;28;20235;-68
2023/03/15 14:36:29;;;;;;;0.23;0.23;;;10.40;99.90;12.10;101782.00;;;;5032604;28;20186;-68
2023/03/15 14:38:58;;;;;;;0.10;0.10;;;10.10;99.90;13.10;101772.00;;;;5046466;28;20185;-68
2023/03/15 14:41:41;;;;;;;0.13;0.13;;;10.00;99.90;15.30;101746.00;;;;5031440;28;20514;-68
2023/03/15 14:44:07;;;;;;;0.10;0.10;;;11.00;99.90;15.70;101747.00;;;;5030477;28;20208;-68
2023/03/15 14:47:15;;;;;;;0.87;0.87;;;11.50;99.90;12.20;101775.00;;;;5031213;28;20214;-68
2023/03/15 14:50:01;;;;;;;0.10;0.10;;;10.80;99.90;14.40;101756.00;;;;5031517;28;20224;-68
2023/03/15 14:52:50;;;;;;;0.20;0.20;;;10.60;99.90;13.40;101765.00;;;;5026891;28;20277;-68
2023/03/15 14:55:37;;;;;;;0.10;0.10;;;10.40;99.90;13.90;101694.00;;;;5030816;28;20643;-68
2023/03/15 14:58:42;;;;;;;1.97;1.80;;;10.50;99.90;13.60;101762.00;;;;5029188;28;20191;-68
2023/03/15 15:01:50;;;;;;;0.10;0.10;;;10.80;99.90;14.90;101738.00;;;;5027167;28;20195;-68
2023/03/15 15:04:47;;;;;;;0.30;0.30;;;10.90;99.90;13.60;101711.00;;;;5014552;28;20188;-68
2023/03/15 15:07:49;;;;;;;0.10;0.10;;;10.80;99.90;13.10;101756.00;;;;5025744;28;20198;-68
2023/03/15 15:10:52;;;;;;;0.20;0.20;;;10.60;99.90;13.80;101745.00;;;;5026887;28;20186;-68
2023/03/15 15:13:37;;;;;;;0.17;0.17;;;10.30;99.90;13.40;101742.00;;;;5040832;28;20210;-68
2023/03/15 15:16:42;;;;;;;0.20;0.20;;;10.40;99.90;14.80;101731.00;;;;5030344;28;20539;-68
2023/03/15 15:19:43;;;;;;;0.10;0.10;;;10.80;99.90;15.30;101729.00;;;;5026313;28;20269;-68
2023/03/15 15:22:49;;;;;;;0.20;0.20;;;11.30;99.90;15.00;101722.00;;;;5034297;28;20233;-68
2023/03/15 15:25:35;;;;;;;0.10;0.10;;;11.10;99.90;15.60;101713.00;;;;5030292;28;20188;-68
2023/03/15 15:28:29;;;;;;;0.10;0.10;;;11.60;99.90;16.00;101711.00;;;;5031462;28;20587;-68
2023/03/15 15:31:35;;;;;;;0.20;0.20;;;11.80;99.90;14.50;101724.00;;;;5034918;28;20279;-68
2023/03/15 15:34:45;;;;;;;0.10;0.10;;;11.40;99.90;14.60;101713.00;;;;5045728;28;20642;-68
2023/03/15 15:38:04;;;;;;;0.20;0.20;;;11.60;99.90;15.10;101704.00;;;;5028416;28;20645;-68
2023/03/15 15:40:36;;;;;;;0.10;0.10;;;11.30;99.90;15.80;101694.00;;;;5055044;28;20192;-68
2023/03/15 15:43:20;;;;;;;0.10;0.10;;;11.60;99.90;13.20;101724.00;;;;5034892;28;20192;-67
2023/03/15 15:46:18;;;;;;;0.10;0.10;;;11.00;99.90;13.70;101727.00;;;;5032585;28;20204;-68
2023/03/15 15:49:24;;;;;;;0.10;0.10;;;10.60;99.90;13.60;101729.00;;;;5034875;28;20261;-67
2023/03/15 15:52:33;;;;;;;0.10;0.10;;;10.30;99.90;13.40;101725.00;;;;5013221;28;20636;-68
2023/03/15 15:55:45;;;;;;;0.27;0.27;;;10.30;99.90;13.60;101718.00;;;;5029164;28;20237;-68
2023/03/15 15:58:34;;;;;;;0.40;0.40;;;10.50;99.90;13.30;101700.00;;;;5045696;28;20183;-68
2023/03/15 16:01:37;;;;;;;0.93;0.40;;;10.30;99.90;13.30;101706.00;;;;5014333;28;20211;-69
2023/03/15 16:04:47;;;;;;;0.10;0.10;;;10.40;99.90;13.80;101714.00;;;;5027453;28;20663;-69
2023/03/15 16:07:52;;;;;;;0.17;0.17;;;10.20;99.90;13.90;101711.00;;;;5029214;28;20213;-70
2023/03/15 16:10:29;;;;;;;0.37;0.37;;;10.80;99.90;14.90;101700.00;;;;5009101;28;20281;-70
2023/03/15 16:13:38;;;;;;;0.40;0.40;;;10.90;99.90;13.70;101712.00;;;;5035096;28;20194;-70
2023/03/15 16:16:51;;;;;;;0.17;0.17;;;11.00;99.90;12.90;101730.00;;;;5033518;28;20195;-69
2023/03/15 16:19:35;;;;;;;0.20;0.20;;;10.30;99.90;13.70;101723.00;;;;5049596;28;20193;-69
2023/03/15 16:22:28;;;;;;;0.10;0.10;;;10.30;99.90;13.40;101672.00;;;;5027356;28;20558;-69
2023/03/15 16:25:02;;;;;;;0.10;0.10;;;10.20;99.90;13.00;101730.00;;;;5024690;28;20648;-69
2023/03/15 16:27:47;;;;;;;0.10;0.10;;;10.20;99.90;12.70;101675.00;;;;5034071;28;20176;-68
2023/03/15 16:30:41;;;;;;;0.20;0.20;;;9.90;99.90;13.10;101726.00;;;;5033818;28;20190;-66
2023/03/15 16:33:25;;;;;;;0.10;0.10;;;9.90;99.90;13.00;101718.00;;;;5033207;28;20240;-67
2023/03/15 16:36:03;;;;;;;0.10;0.10;;;9.90;99.90;13.70;101709.00;;;;5039657;28;20652;-67
2023/03/15 16:38:31;;;;;;;0.10;0.10;;;10.10;99.90;13.10;101716.00;;;;5039773;28;20455;-67
2023/03/15 16:41:09;;;;;;;0.10;0.10;;;10.10;99.90;13.60;101705.00;;;;5041270;28;20201;-67
2023/03/15 16:43:39;;;;;;;0.10;0.10;;;10.20;99.90;13.70;101726.00;;;;5040937;28;20273;-67
2023/03/15 16:46:12;;;;;;;1.00;1.00;;;10.40;99.90;14.50;101709.00;;;;5038620;28;20192;-67
2023/03/15 16:48:42;;;;;;;0.33;0.33;;;10.60;99.90;13.60;101718.00;;;;5039101;28;20193;-67
2023/03/15 16:51:18;;;;;;;0.10;0.10;;;10.70;99.90;14.30;101718.00;;;;5041159;28;20181;-67
2023/03/15 16:53:44;;;;;;;0.13;0.13;;;10.60;99.90;13.70;101670.00;;;;5040301;28;20190;-67
2023/03/15 16:56:23;;;;;;;0.10;0.10;;;10.60;99.90;13.70;101719.00;;;;5042119;28;20200;-67
2023/03/15 16:58:59;;;;;;;0.10;0.10;;;10.40;99.90;13.90;101667.00;;;;5040920;28;20606;-67
2023/03/15 17:01:27;;;;;;;0.10;0.10;;;10.40;99.90;13.60;101713.00;;;;5055435;28;20190;-67
2023/03/15 17:03:56;;;;;;;0.83;0.83;;;10.30;99.90;13.60;101710.00;;;;5039933;28;20185;-67
2023/03/15 17:06:22;;;;;;;0.10;0.10;;;10.30;99.90;13.80;101720.00;;;;5038980;28;20179;-67
2023/03/15 17:09:11;;;;;;;0.10;0.10;;;10.30;99.90;13.80;101709.00;;;;5039439;28;20553;-67
2023/03/15 17:12:17;;;;;;;0.10;0.10;;;10.30;99.90;13.50;101735.00;;;;5039232;28;20262;-67
2023/03/15 17:14:46;;;;;;;0.20;0.20;;;10.40;99.90;13.20;101728.00;;;;5040727;28;20187;-67
2023/03/15 17:17:14;;;;;;;0.10;0.10;;;10.20;99.90;13.90;101723.00;;;;5039645;28;20261;-67
2023/03/15 17:19:46;;;;;;;0.30;0.30;;;10.20;99.90;13.80;101728.00;;;;5022314;28;20618;-66
2023/03/15 17:22:14;;;;;;;0.10;0.10;;;10.30;99.90;13.40;101725.00;;;;5037522;28;20197;-67
2023/03/15 17:25:00;;;;;;;0.20;0.20;;;10.10;99.90;14.20;101671.00;;;;5037704;28;20216;-67
2023/03/15 17:27:39;;;;;;;0.50;0.50;;;10.40;99.90;13.90;101732.00;;;;5038302;28;20240;-67
2023/03/15 17:30:41;;;;;;;0.10;0.10;;;10.50;99.90;14.30;101698.00;;;;5040476;28;20532;-77
2023/03/15 17:33:36;;;;;;;0.30;0.30;;;10.50;99.90;13.00;101738.00;;;;5032040;28;20237;-66
2023/03/15 17:36:11;;;;;;;0.30;0.30;;;10.20;99.90;13.10;101744.00;;;;5043187;28;20186;-67
2023/03/15 17:39:21;;;;;;;0.30;0.30;;;9.90;99.90;13.10;101749.00;;;;5042044;28;20200;-66
2023/03/15 17:42:00;;;;;;;0.17;0.17;;;9.80;99.90;13.50;101735.00;;;;5026302;28;20281;-66
2023/03/15 17:45:13;;;;;;;0.10;0.10;;;9.80;99.90;14.00;101728.00;;;;5041218;28;20204;-66
2023/03/15 17:48:04;;;;;;;0.40;0.40;;;10.10;99.90;14.00;101728.00;;;;5027749;28;20307;-66
2023/03/15 17:51:11;;;;;;;0.10;0.10;;;10.20;99.90;13.90;101733.00;;;;5041029;28;20193;-66
2023/03/15 17:53:56;;;;;;;0.27;0.27;;;10.20;99.90;13.10;101745.00;;;;5039463;28;20236;-66
2023/03/15 17:56:22;;;;;;;0.20;0.20;;;10.00;99.90;13.70;101753.00;;;;5043017;28;20716;-66
2023/03/15 17:58:48;;;;;;;0.25;0.25;;;9.90;99.90;13.80;101742.00;;;;5023528;28;20523;-66
2023/03/15 18:01:27;;;;;;;0.10;0.10;;;9.90;99.90;14.00;101731.00;;;;5029484;28;20190;-66
2023/03/15 18:04:14;;;;;;;0.10;0.10;;;10.10;99.90;14.40;101726.00;;;;5012427;28;20691;-66
2023/03/15 18:07:01;;;;;;;0.20;0.20;;;10.20;99.90;13.70;101743.00;;;;5032791;28;20188;-66
2023/03/15 18:09:33;;;;;;;0.10;0.10;;;10.10;99.90;13.80;101742.00;;;;5017872;28;20198;-66
2023/03/15 18:12:09;;;;;;;0.10;0.10;;;10.00;99.90;14.00;101738.00;;;;5030836;28;20666;-66
2023/03/15 18:14:37;;;;;;;0.20;0.20;;;10.00;99.90;14.10;101747.00;;;;5031988;28;20200;-66
2023/03/15 18:17:09;;;;;;;0.13;0.13;;;10.10;99.90;13.40;101754.00;;;;5031026;28;20194;-66
2023/03/15 18:19:35;;;;;;;0.20;0.20;;;10.00;99.90;13.40;101764.00;;;;5031858;28;20188;-66
2023/03/15 18:22:03;;;;;;;0.10;0.10;;;9.70;99.90;13.90;101754.00;;;;5033396;28;20539;-66
2023/03/15 18:24:30;;;;;;;0.20;0.20;;;9.80;99.90;13.60;101753.00;;;;5028458;28;20183;-66
2023/03/15 18:27:10;;;;;;;0.30;0.30;;;9.80;99.90;13.40;101734.00;;;;5031041;28;20187;-67
2023/03/15 18:29:57;;;;;;;0.43;0.43;;;9.90;99.90;13.40;101761.00;;;;5027792;28;20221;-67
2023/03/15 18:32:23;;;;;;;0.10;0.10;;;9.80;99.90;13.10;101768.00;;;;5028196;28;20222;-66
2023/03/15 18:35:11;;;;;;;0.20;0.20;;;9.60;99.90;12.90;101713.00;;;;5031247;28;20205;-67
2023/03/15 18:37:40;;;;;;;0.20;0.20;;;9.50;99.90;12.90;101772.00;;;;5026344;28;20226;-66
2023/03/15 18:40:30;;;;;;;0.10;0.10;;;9.40;99.90;12.80;101774.00;;;;5031013;28;20182;-66
2023/03/15 18:42:57;;;;;;;0.20;0.20;;;9.40;99.90;12.80;101765.00;;;;5031651;28;20226;-66
2023/03/15 18:45:46;;;;;;;0.30;0.30;;;9.40;99.90;13.10;101719.00;;;;5027862;28;20202;-66
2023/03/15 18:48:12;;;;;;;0.30;0.30;;;9.40;99.90;13.10;101749.00;;;;5021684;28;20188;-66
2023/03/15 18:50:56;;;;;;;0.73;0.73;;;9.40;99.90;12.70;101780.00;;;;5022894;28;20397;-66
2023/03/15 18:53:22;;;;;;;0.10;0.10;;;9.30;99.90;12.20;101786.00;;;;5013532;28;20230;-66
2023/03/15 18:55:49;;;;;;;0.20;0.20;;;9.10;99.90;12.70;101778.00;;;;5044281;28;20187;-66
2023/03/15 18:58:24;;;;;;;0.20;0.20;;;9.10;99.90;12.90;101710.00;;;;5028061;28;20190;-66
2023/03/15 19:01:10;;;;;;;1.60;1.60;;;9.20;99.90;12.40;101774.00;;;;5044463;28;20655;-66
2023/03/15 19:03:38;;;;;;;0.20;0.20;;;9.10;99.90;12.60;101777.00;;;;5043975;28;20198;-66
2023/03/15 19:06:27;;;;;;;0.20;0.20;;;9.10;99.90;12.70;101768.00;;;;5045126;28;20182;-66
2023/03/15 19:09:16;;;;;;;0.20;0.20;;;9.20;99.90;12.80;101768.00;;;;5045416;28;20183;-66
2023/03/15 19:12:00;;;;;;;1.23;0.50;;;9.30;99.90;13.20;101761.00;;;;5042971;28;20199;-66
2023/03/15 19:14:26;;;;;;;0.20;0.20;;;9.20;99.90;12.80;101752.00;;;;5044734;28;20660;-66
2023/03/15 19:17:09;;;;;;;0.20;0.20;;;9.30;99.90;12.80;101704.00;;;;5023478;28;20202;-66
2023/03/15 19:19:52;;;;;;;0.10;0.10;;;9.30;99.90;12.60;101777.00;;;;5043431;28;20652;-66
2023/03/15 19:22:37;;;;;;;0.23;0.23;;;9.20;99.90;12.30;101782.00;;;;5043324;28;20203;-67
2023/03/15 19:25:12;;;;;;;0.37;0.30;;;9.00;99.90;12.60;101775.00;;;;5040775;28;20192;-66
2023/03/15 19:28:01;;;;;;;0.60;0.60;;;9.00;99.90;13.20;101756.00;;;;5043118;28;20186;-66
2023/03/15 19:30:37;;;;;;;0.30;0.30;;;9.20;99.90;12.60;101713.00;;;;5043975;28;20191;-66
2023/03/15 19:33:15;;;;;;;0.20;0.20;;;9.10;99.90;12.90;101759.00;;;;5044098;28;20223;-66
2023/03/15 19:35:53;;;;;;;0.20;0.20;;;9.30;99.90;12.50;101758.00;;;;5042976;28;20277;-66
2023/03/15 19:38:39;;;;;;;0.20;0.20;;;9.10;99.90;12.70;101753.00;;;;5043534;28;20191;-66
2023/03/15 19:41:47;;;;;;;0.20;0.20;;;9.10;99.90;12.60;101762.00;;;;5036149;28;20708;-66
2023/03/15 19:44:51;;;;;;;0.20;0.20;;;9.10;99.90;12.30;101737.00;;;;5033725;28;20183;-66
2023/03/15 19:47:52;;;;;;;0.20;0.20;;;8.90;99.90;11.90;101780.00;;;;5034014;28;20212;-66
2023/03/15 19:51:03;;;;;;;0.40;0.40;;;8.80;99.90;12.20;101716.00;;;;5014923;28;20366;-66